Forside
METAR-TAF:

METAR-TAF

Lufthavne :

Grand Rapids/Itasca County Airport (Gordon Newstrom Field)

Grand Rapids, Minnesota, USA

Breddekreds: 47-13N, længdekreds: 093-31W, højde: 413 m

Aktuelle vejr

Denne rapport blev lavet for 29 minutter siden, kl. 13:56 UTC
Vind 12 kt fra vestnordvest med vindstød på up til 18 kt
Temperatur 4°C
Fugtighed 70%
Tryk 1009 hPa
Sigt: 16.1 km
skyfri

METAR: KGPZ 081356Z AUTO 30012G18KT 10SM CLR 04/M01 A2980 RMK AO2 SLP102 T00391006

Tid: 09:25 (14:25 UTC)


TAF: fraværende

Vejrobservationer og prognoser fra mere end 4000 lufthavne (METAR og TAF).

De gule og røde prikker repræsenterer de meteorologiske stationer.

Flyt musen over at se navnet på stationen.

Så klik over at se vejr observationer og prognoser.

At skifte det kort: Klik på de grønne knapper med et sort kors for at zoome ind; på den grønne knap med en bindestreg for at zoome ud; eller på de grønne pile for tilstødende kort.


METAR-TAF: